Time;durP1;ratioP1;P1;durP2;ratioP2;P2;SDS_P1;SDS_P2;PMS_P1;PMS_P2;Temp;Humidity;BMP_temperature;BMP_pressure;BME280_temperature;BME280_humidity;BME280_pressure;Samples;Min_cycle;Max_cycle;Signal;HPM_P1;HPM_P2
2022/04/26 03:36:06;;;;;;;3.30;2.40;;;;;;;17.74;45.52;99207.03;4484520;32;34065;-70
2022/04/26 03:37:36;;;;;;;9.07;6.25;;;;;;;9.29;71.42;99507.56;4484284;32;32930;-66
2022/04/26 03:40:04;;;;;;;9.55;6.12;;;;;;;9.25;71.21;99511.81;4484279;32;33720;-70
2022/04/26 03:42:31;;;;;;;9.15;5.97;;;;;;;9.59;69.96;99515.34;4484253;32;33847;-68
2022/04/26 03:44:58;;;;;;;10.02;6.57;;;;;;;9.84;68.88;99514.88;4483148;32;33829;-67
2022/04/26 03:47:26;;;;;;;8.80;6.45;;;;;;;9.54;70.27;99522.56;4484350;32;34179;-70
2022/04/26 03:49:53;;;;;;;10.45;5.85;;;;;;;9.38;71.01;99524.22;4484237;32;33557;-70
2022/04/26 03:52:21;;;;;;;9.23;6.55;;;;;;;9.56;70.44;99528.53;4484491;32;34977;-70
2022/04/26 03:54:48;;;;;;;9.70;6.62;;;;;;;9.46;70.79;99529.22;4484120;32;34551;-67
2022/04/26 03:57:15;;;;;;;10.93;6.60;;;;;;;9.32;72.11;99534.13;4484185;32;33761;-69
2022/04/26 03:59:43;;;;;;;9.15;6.12;;;;;;;9.75;69.73;99535.34;4484207;32;34047;-75
2022/04/26 04:02:11;;;;;;;8.32;5.97;;;;;;;10.14;68.79;99551.59;4483179;32;33886;-66
2022/04/26 04:04:40;;;;;;;8.57;6.25;;;;;;;10.51;67.10;99551.00;4473218;32;34535;-65
2022/04/26 04:07:07;;;;;;;9.80;5.90;;;;;;;10.84;65.80;99552.75;4468097;32;33554;-69
2022/04/26 04:09:34;;;;;;;9.10;6.28;;;;;;;11.36;63.77;99554.06;4468863;32;34991;-63
2022/04/26 04:12:03;;;;;;;8.75;5.65;;;;;;;11.46;63.12;99551.41;4484230;32;34962;-64
2022/04/26 04:14:31;;;;;;;8.50;5.60;;;;;;;11.61;62.69;99558.84;4483938;32;34607;-69
2022/04/26 04:16:58;;;;;;;7.78;5.43;;;;;;;12.17;60.69;99552.19;4483197;32;33186;-67
2022/04/26 04:19:27;;;;;;;7.22;5.20;;;;;;;12.46;59.60;99555.28;4483697;32;34764;-69
2022/04/26 04:21:54;;;;;;;6.47;4.97;;;;;;;12.83;58.20;99566.06;4483587;32;34806;-68
2022/04/26 04:24:22;;;;;;;10.73;5.97;;;;;;;12.65;58.91;99567.34;4483384;32;33520;-69
2022/04/26 04:26:49;;;;;;;7.22;4.93;;;;;;;13.60;56.40;99562.62;4483677;32;35942;-65
2022/04/26 04:29:17;;;;;;;6.80;4.62;;;;;;;14.00;54.68;99575.41;4483382;32;34652;-63
2022/04/26 04:31:45;;;;;;;5.75;4.45;;;;;;;14.65;52.46;99578.22;4483409;32;34257;-64
2022/04/26 04:34:13;;;;;;;6.85;4.90;;;;;;;15.22;51.74;99573.25;4477332;32;33893;-65
2022/04/26 04:36:40;;;;;;;9.68;4.50;;;;;;;15.55;50.17;99584.50;4467602;32;33357;-68
2022/04/26 04:39:07;;;;;;;7.30;4.80;;;;;;;15.87;48.84;99581.22;4467489;32;34083;-69
2022/04/26 04:41:38;;;;;;;6.85;4.72;;;;;;;15.93;48.43;99582.00;4483137;32;34178;-69
2022/04/26 04:44:07;;;;;;;6.40;4.20;;;;;;;15.92;48.37;99596.81;4483274;32;33967;-63
2022/04/26 04:46:34;;;;;;;5.55;4.25;;;;;;;15.77;48.53;99589.56;4482669;32;33212;-71
2022/04/26 04:49:02;;;;;;;6.20;4.22;;;;;;;15.74;50.23;99595.56;4482839;32;33646;-64
2022/04/26 04:51:30;;;;;;;6.10;4.43;;;;;;;15.91;49.21;99598.72;4483024;32;33742;-68
2022/04/26 04:53:57;;;;;;;5.45;4.35;;;;;;;15.97;48.89;99604.97;4482782;32;33954;-71
2022/04/26 04:56:26;;;;;;;5.60;3.97;;;;;;;15.81;49.10;99611.66;4482903;32;34199;-66
2022/04/26 04:58:54;;;;;;;6.12;3.90;;;;;;;15.54;50.09;99605.56;4482887;32;34599;-69
2022/04/26 05:01:22;;;;;;;6.57;4.50;;;;;;;16.28;47.44;99610.13;4481677;32;33925;-69
2022/04/26 05:03:50;;;;;;;5.47;3.92;;;;;;;16.09;48.11;99607.28;4482637;32;34599;-71
2022/04/26 05:06:18;;;;;;;6.82;4.40;;;;;;;16.73;47.36;99618.91;4482781;32;33864;-70
2022/04/26 05:08:46;;;;;;;5.62;4.25;;;;;;;18.05;44.21;99626.34;4482834;32;34686;-65
2022/04/26 05:11:13;;;;;;;5.78;3.85;;;;;;;18.31;42.12;99620.37;4469226;32;34841;-66
2022/04/26 05:13:41;;;;;;;5.55;3.90;;;;;;;18.83;43.09;99616.38;4467078;32;33888;-64
2022/04/26 05:16:08;;;;;;;5.95;3.67;;;;;;;19.70;39.88;99627.37;4466800;32;34223;-65
2022/04/26 05:18:36;;;;;;;6.43;3.97;;;;;;;19.17;40.17;99628.81;4466805;32;33977;-63
2022/04/26 05:21:07;;;;;;;5.97;4.03;;;;;;;18.53;42.99;99628.75;4467176;32;34980;-71
2022/04/26 05:26:38;;;;;;;5.10;3.92;;;;;;;18.51;43.21;99639.25;4433036;32;33022;-69
2022/04/26 05:29:06;;;;;;;6.22;3.83;;;;;;;19.11;40.99;99635.53;4473043;31;33629;-67
2022/04/26 05:31:33;;;;;;;5.32;3.72;;;;;;;19.32;41.24;99630.41;4482657;32;35081;-73
2022/04/26 05:34:00;;;;;;;5.15;3.87;;;;;;;19.33;41.83;99642.22;4483386;32;33436;-69
2022/04/26 05:36:34;;;;;;;5.35;3.62;;;;;;;19.11;41.95;99637.50;4484914;32;33551;-71
2022/04/26 05:39:01;;;;;;;5.55;3.45;;;;;;;19.32;40.75;99640.59;4481810;32;33543;-69
2022/04/26 05:41:29;;;;;;;5.32;3.70;;;;;;;19.60;40.85;99642.13;4476902;32;33996;-63
2022/04/26 05:43:56;;;;;;;5.12;3.35;;;;;;;19.77;40.91;99636.00;4476543;32;33885;-70
2022/04/26 05:46:24;;;;;;;5.22;3.75;;;;;;;18.72;43.31;99638.81;4484028;32;33316;-70
2022/04/26 05:48:51;;;;;;;5.72;3.33;;;;;;;19.44;41.27;99649.94;4476506;32;34432;-67
2022/04/26 05:51:19;;;;;;;6.35;3.85;;;;;;;19.57;41.13;99648.28;4472466;32;34984;-70
2022/04/26 05:53:47;;;;;;;4.68;3.37;;;;;;;20.14;39.77;99650.47;4483612;32;34446;-66
2022/04/26 05:56:15;;;;;;;5.00;3.53;;;;;;;20.35;39.67;99650.78;4484464;32;34133;-71
2022/04/26 05:58:43;;;;;;;5.78;3.87;;;;;;;20.70;38.26;99653.69;4484341;32;33600;-68
2022/04/26 06:01:10;;;;;;;6.00;3.53;;;;;;;19.77;40.43;99654.44;4484786;32;34994;-67
2022/04/26 06:03:38;;;;;;;5.65;3.53;;;;;;;19.52;42.66;99653.06;4484676;32;34085;-65
2022/04/26 06:06:06;;;;;;;5.30;3.60;;;;;;;19.52;42.00;99659.38;4484830;31;33525;-70
2022/04/26 06:08:33;;;;;;;5.45;3.35;;;;;;;19.15;42.54;99649.50;4484260;32;34771;-65
2022/04/26 06:11:01;;;;;;;4.80;3.58;;;;;;;19.75;40.98;99659.47;4475023;32;34215;-69
2022/04/26 06:13:28;;;;;;;4.95;3.55;;;;;;;20.14;40.65;99653.25;4467101;32;33975;-66
2022/04/26 06:15:56;;;;;;;4.72;3.40;;;;;;;17.42;43.89;99650.34;4467000;32;34145;-65
2022/04/26 06:18:24;;;;;;;5.68;3.83;;;;;;;18.49;43.37;99651.63;4468384;32;34726;-66
2022/04/26 06:20:51;;;;;;;5.25;3.83;;;;;;;17.89;45.38;99656.00;4468363;32;34299;-65
2022/04/26 06:23:19;;;;;;;5.80;3.95;;;;;;;16.25;48.06;99657.25;4475210;32;33705;-69
2022/04/26 06:25:46;;;;;;;5.65;4.03;;;;;;;17.91;46.41;99652.94;4484447;32;33138;-68
2022/04/26 06:28:13;;;;;;;5.28;3.40;;;;;;;18.08;45.85;99655.12;4483959;32;34369;-69
2022/04/26 06:30:41;;;;;;;4.45;3.20;;;;;;;18.73;41.73;99645.97;4482872;32;32813;-69
2022/04/26 06:33:08;;;;;;;5.43;3.30;;;;;;;18.36;43.99;99653.28;4484392;32;33932;-68
2022/04/26 06:35:43;;;;;;;6.05;3.28;;;;;;;19.94;41.34;99646.31;4484546;32;33413;-69
2022/04/26 06:38:10;;;;;;;4.70;3.35;;;;;;;20.73;39.48;99652.25;4483271;32;33909;-69
2022/04/26 06:40:38;;;;;;;4.87;2.97;;;;;;;21.74;36.54;99655.84;4484420;32;34671;-66
2022/04/26 06:43:05;;;;;;;4.28;3.10;;;;;;;20.49;37.97;99661.69;4483950;32;34480;-67
2022/04/26 06:45:33;;;;;;;4.43;3.10;;;;;;;20.69;36.88;99652.06;4484012;32;33606;-65
2022/04/26 06:48:00;;;;;;;5.50;3.70;;;;;;;20.63;38.84;99658.87;4484165;32;33919;-65
2022/04/26 06:50:34;;;;;;;4.45;3.00;;;;;;;22.32;36.57;99651.69;4483692;32;34336;-70
2022/04/26 06:53:02;;;;;;;5.32;3.55;;;;;;;22.90;33.40;99656.84;4484008;32;34277;-67
2022/04/26 06:55:29;;;;;;;4.45;3.20;;;;;;;20.73;36.92;99661.31;4480361;32;33589;-67
2022/04/26 06:57:57;;;;;;;4.45;3.12;;;;;;;22.03;35.01;99662.62;4474127;32;34228;-66
2022/04/26 07:00:25;;;;;;;4.60;3.15;;;;;;;21.81;36.83;99666.37;4476276;32;34175;-69
2022/04/26 07:02:53;;;;;;;4.05;2.83;;;;;;;22.05;36.10;99665.87;4484244;32;34621;-70
2022/04/26 07:05:24;;;;;;;5.40;2.95;;;;;;;21.56;37.83;99676.31;4480472;32;34386;-74
2022/04/26 07:07:52;;;;;;;4.05;2.85;;;;;;;19.12;40.37;99661.12;4468231;32;34654;-67
2022/04/26 07:10:21;;;;;;;4.87;2.70;;;;;;;20.53;38.47;99667.38;4467963;32;34951;-66
2022/04/26 07:12:49;;;;;;;4.10;3.10;;;;;;;20.23;39.39;99662.34;4467390;32;33990;-66
2022/04/26 07:15:16;;;;;;;4.47;2.72;;;;;;;21.16;37.56;99668.09;4476886;32;33862;-67
2022/04/26 07:17:43;;;;;;;4.82;2.83;;;;;;;20.94;39.25;99666.28;4482477;32;34296;-68
2022/04/26 07:20:12;;;;;;;5.50;3.28;;;;;;;20.75;36.80;99667.34;4483519;32;33998;-68
2022/04/26 07:22:39;;;;;;;4.20;2.70;;;;;;;20.22;39.93;99673.72;4483135;32;34455;-69
2022/04/26 07:25:07;;;;;;;4.93;2.75;;;;;;;20.92;39.15;99672.09;4484053;32;34306;-69
2022/04/26 07:27:35;;;;;;;4.65;2.97;;;;;;;21.03;37.14;99678.94;4483098;32;34745;-70
2022/04/26 07:30:03;;;;;;;3.92;2.65;;;;;;;19.57;39.99;99672.25;4484245;32;34926;-69
2022/04/26 07:35:17;;;;;;;4.18;2.65;;;;;;;20.64;37.93;99677.84;4475802;32;33006;-68
2022/04/26 07:37:44;;;;;;;4.03;2.55;;;;;;;20.96;38.02;99675.84;4477283;32;34687;-70
2022/04/26 07:40:11;;;;;;;5.00;3.25;;;;;;;21.26;37.06;99676.09;4468501;32;34118;-69
2022/04/26 07:42:39;;;;;;;4.72;2.90;;;;;;;20.67;39.63;99679.16;4468644;32;33947;-69
2022/04/26 07:45:09;;;;;;;4.22;2.47;;;;;;;21.04;38.88;99686.09;4479910;32;32891;-69
2022/04/26 07:47:36;;;;;;;2.92;2.25;;;;;;;19.58;40.03;99682.09;4482549;32;34723;-70
2022/04/26 07:50:05;;;;;;;3.40;2.40;;;;;;;20.12;38.53;99684.97;4484382;32;34078;-71
2022/04/26 07:52:32;;;;;;;4.22;2.60;;;;;;;21.02;38.60;99682.03;4483957;32;34424;-69
2022/04/26 07:55:00;;;;;;;4.53;2.53;;;;;;;21.23;37.11;99685.00;4484335;32;34067;-66
2022/04/26 07:57:27;;;;;;;3.95;2.40;;;;;;;20.16;37.75;99689.56;4481964;32;34130;-71
2022/04/26 07:59:55;;;;;;;3.70;2.42;;;;;;;20.04;37.52;99690.13;4483833;32;34160;-71
2022/04/26 08:02:24;;;;;;;3.95;2.90;;;;;;;21.15;36.39;99700.41;4484013;32;33669;-71
2022/04/26 08:04:54;;;;;;;6.50;3.08;;;;;;;20.93;35.69;99697.72;4482755;32;32710;-70
2022/04/26 08:07:21;;;;;;;3.50;2.60;;;;;;;21.00;35.43;99698.09;4483739;32;33707;-70
2022/04/26 08:09:48;;;;;;;3.75;2.70;;;;;;;20.74;38.01;99709.03;4482391;32;34982;-69
2022/04/26 08:12:16;;;;;;;4.12;2.87;;;;;;;19.84;40.58;99698.88;4476604;32;33636;-70
2022/04/26 08:14:43;;;;;;;4.00;2.50;;;;;;;20.04;39.49;99694.81;4477839;32;34291;-71
2022/04/26 08:17:11;;;;;;;3.50;2.47;;;;;;;20.42;36.25;99697.16;4475409;32;33357;-69
2022/04/26 08:19:39;;;;;;;3.62;2.50;;;;;;;20.31;37.82;99698.56;4474461;32;34183;-70
2022/04/26 08:22:07;;;;;;;3.45;2.33;;;;;;;19.79;38.97;99699.81;4473685;32;33331;-71
2022/04/26 08:27:23;;;;;;;3.28;2.20;;;;;;;19.55;38.81;99691.81;4483846;32;34030;-69
2022/04/26 08:29:52;;;;;;;3.25;2.12;;;;;;;20.59;36.23;99697.28;4483547;32;34259;-70
2022/04/26 08:32:19;;;;;;;2.47;1.62;;;;;;;21.16;33.91;99699.25;4482951;32;33543;-70
2022/04/26 08:34:48;;;;;;;1.33;1.23;;;;;;;21.31;33.15;99698.81;4483876;32;33776;-70
2022/04/26 08:37:15;;;;;;;2.50;1.70;;;;;;;21.47;31.16;99707.47;4483365;32;33723;-68
2022/04/26 08:39:42;;;;;;;2.70;1.50;;;;;;;20.82;32.25;99705.47;4484071;32;35151;-71
2022/04/26 08:42:10;;;;;;;1.65;1.15;;;;;;;20.99;36.14;99707.47;4483658;32;34628;-67
2022/04/26 08:44:38;;;;;;;1.55;1.02;;;;;;;20.86;32.33;99711.97;4484074;32;34240;-70
2022/04/26 08:52:48;;;;;;;4.53;1.67;;;;;;;19.97;34.50;99710.97;4482532;32;34512;-68
2022/04/26 08:55:16;;;;;;;3.60;1.90;;;;;;;19.94;36.30;99711.59;4483695;32;32826;-69
2022/04/26 08:57:44;;;;;;;1.55;1.33;;;;;;;19.85;39.36;99711.53;4482082;32;34313;-67
2022/04/26 09:00:11;;;;;;;1.65;1.30;;;;;;;19.78;36.14;99722.12;4482354;32;34932;-70
2022/04/26 09:02:39;;;;;;;1.83;1.55;;;;;;;20.84;34.58;99714.25;4483501;32;33914;-70
2022/04/26 09:05:12;;;;;;;2.10;1.30;;;;;;;20.18;33.11;99711.28;4483494;32;32915;-68
2022/04/26 09:07:41;;;;;;;1.52;1.10;;;;;;;20.24;34.24;99712.78;4482423;32;33850;-70
2022/04/26 09:10:16;;;;;;;2.92;1.30;;;;;;;19.49;34.74;99706.00;4485477;32;33938;-71
2022/04/26 09:13:09;;;;;;;1.52;1.20;;;;;;;19.96;33.13;99701.88;4485592;32;33652;-67
2022/04/26 09:15:47;;;;;;;1.83;1.30;;;;;;;19.24;38.94;99714.50;4484358;32;33338;-70
2022/04/26 09:18:15;;;;;;;2.40;1.30;;;;;;;19.78;36.88;99706.44;4483959;32;33742;-69
2022/04/26 09:20:44;;;;;;;1.83;1.20;;;;;;;20.12;34.76;99707.03;4485328;32;33843;-70
2022/04/26 09:23:22;;;;;;;1.50;1.20;;;;;;;20.11;36.06;99705.38;4485365;32;34629;-70
2022/04/26 09:25:56;;;;;;;1.08;0.93;;;;;;;20.38;32.65;99715.44;4485345;32;33616;-68
2022/04/26 09:28:27;;;;;;;4.68;1.20;;;;;;;20.59;33.35;99707.50;4484066;32;33949;-68
2022/04/26 09:30:56;;;;;;;1.65;1.10;;;;;;;19.94;33.38;99711.59;4484986;32;33932;-68
2022/04/26 09:33:32;;;;;;;2.10;1.37;;;;;;;19.83;35.14;99711.03;4485547;32;33821;-68
2022/04/26 09:36:00;;;;;;;3.15;1.35;;;;;;;19.23;35.39;99720.28;4485362;32;33530;-71
2022/04/26 09:38:31;;;;;;;1.73;1.40;;;;;;;19.56;36.09;99714.62;4485025;32;33679;-68
2022/04/26 09:41:04;;;;;;;1.30;1.20;;;;;;;20.23;36.98;99711.94;4485343;32;34820;-68
2022/04/26 09:43:32;;;;;;;2.50;1.30;;;;;;;19.69;34.55;99711.03;4485018;32;33769;-69
2022/04/26 09:46:00;;;;;;;2.70;1.77;;;;;;;19.29;33.78;99709.97;4485290;32;33173;-70
2022/04/26 09:48:33;;;;;;;10.27;1.40;;;;;;;19.57;38.34;99708.03;4485200;32;33845;-69
2022/04/26 09:51:01;;;;;;;4.22;1.33;;;;;;;20.41;34.08;99710.13;4484106;32;33714;-67
2022/04/26 09:53:29;;;;;;;1.45;1.10;;;;;;;21.12;30.85;99708.50;4484571;32;33809;-73
2022/04/26 09:55:57;;;;;;;1.80;1.10;;;;;;;21.10;31.66;99708.81;4484884;32;34197;-72
2022/04/26 09:58:28;;;;;;;2.62;1.80;;;;;;;21.26;29.25;99711.97;4484339;32;33836;-69
2022/04/26 10:00:57;;;;;;;2.70;1.60;;;;;;;21.26;31.10;99704.47;4484823;32;34075;-68
2022/04/26 10:03:30;;;;;;;2.35;1.52;;;;;;;20.96;31.71;99710.91;4483620;32;33945;-69
2022/04/26 10:06:02;;;;;;;2.90;1.65;;;;;;;21.16;32.14;99709.50;4483663;31;34192;-73
2022/04/26 10:08:32;;;;;;;3.25;1.98;;;;;;;20.17;35.25;99702.22;4485063;32;33864;-68
2022/04/26 10:11:00;;;;;;;2.85;1.85;;;;;;;20.03;36.67;99705.00;4484865;32;34136;-71
2022/04/26 10:13:32;;;;;;;2.92;1.87;;;;;;;20.65;34.95;99707.03;4484323;32;33930;-72
2022/04/26 10:16:00;;;;;;;2.30;1.80;;;;;;;21.16;33.95;99699.25;4483553;32;34215;-72
2022/04/26 10:18:33;;;;;;;2.67;1.75;;;;;;;19.76;32.97;99696.84;4484890;32;34589;-72
2022/04/26 10:21:02;;;;;;;2.67;1.80;;;;;;;18.68;39.46;99696.31;4483108;32;34068;-73
2022/04/26 10:23:56;;;;;;;3.28;2.20;;;;;;;18.55;37.38;99692.47;4485085;32;33858;-71
2022/04/26 10:26:24;;;;;;;4.60;2.00;;;;;;;19.03;38.29;99683.84;4483276;32;33286;-69
2022/04/26 10:28:57;;;;;;;2.37;1.73;;;;;;;19.18;37.74;99687.38;4483852;32;33474;-71
2022/04/26 10:31:47;;;;;;;2.58;1.87;;;;;;;19.14;36.60;99681.69;4484781;32;35123;-67
2022/04/26 10:34:25;;;;;;;3.12;1.90;;;;;;;20.12;37.35;99682.22;4485034;32;34496;-70
2022/04/26 10:36:55;;;;;;;3.60;2.25;;;;;;;20.69;36.12;99687.91;4484375;32;34268;-66
2022/04/26 10:39:31;;;;;;;3.28;2.00;;;;;;;20.43;35.15;99685.00;4484174;32;34688;-67
2022/04/26 10:42:01;;;;;;;4.10;2.17;;;;;;;20.59;34.27;99677.97;4484712;32;33987;-68
2022/04/26 10:44:37;;;;;;;3.60;1.90;;;;;;;19.43;37.25;99675.81;4482445;32;33720;-70
2022/04/26 10:47:06;;;;;;;2.85;1.92;;;;;;;19.39;37.59;99669.31;4484242;32;34236;-65
2022/04/26 10:49:40;;;;;;;3.70;2.20;;;;;;;20.23;36.39;99675.31;4484818;32;33636;-66
2022/04/26 10:54:58;;;;;;;3.17;2.25;;;;;;;21.36;35.08;99667.50;4484749;32;34653;-75
2022/04/26 10:57:27;;;;;;;3.05;2.05;;;;;;;21.12;36.14;99670.69;4484227;32;33209;-70
2022/04/26 11:00:02;;;;;;;3.65;1.98;;;;;;;20.83;36.61;99669.31;4474664;32;34082;-68
2022/04/26 11:02:33;;;;;;;3.35;2.10;;;;;;;21.06;36.58;99678.31;4467892;32;34790;-70
2022/04/26 11:05:04;;;;;;;3.25;2.05;;;;;;;21.56;34.56;99673.56;4479906;32;33219;-68
2022/04/26 11:07:32;;;;;;;3.05;2.12;;;;;;;21.83;36.66;99681.50;4466013;32;32998;-63
2022/04/26 11:10:00;;;;;;;3.00;1.80;;;;;;;22.58;34.15;99678.44;4475841;32;34034;-67
2022/04/26 11:12:29;;;;;;;3.37;2.28;;;;;;;22.49;33.81;99680.44;4482361;32;33949;-64
2022/04/26 11:15:00;;;;;;;4.00;2.30;;;;;;;21.94;36.48;99672.87;4468701;32;33445;-67
2022/04/26 11:17:29;;;;;;;3.95;2.35;;;;;;;22.57;32.50;99673.25;4467431;32;33297;-71
2022/04/26 11:19:59;;;;;;;4.00;2.35;;;;;;;22.98;33.21;99674.53;4468951;32;34074;-70
2022/04/26 11:22:28;;;;;;;2.20;1.75;;;;;;;22.22;31.63;99676.09;4468593;32;34954;-67
2022/04/26 11:28:11;;;;;;;2.70;1.70;;;;;;;21.54;35.32;99679.41;4483952;32;33945;-68
2022/04/26 11:30:47;;;;;;;3.22;2.33;;;;;;;21.56;39.72;99676.31;4482249;32;33324;-72
2022/04/26 11:33:22;;;;;;;2.70;2.10;;;;;;;22.26;34.72;99677.88;4484429;32;33816;-68
2022/04/26 11:36:01;;;;;;;3.10;1.83;;;;;;;22.18;35.92;99672.34;4483019;32;33769;-73
2022/04/26 11:38:29;;;;;;;3.00;1.75;;;;;;;21.73;36.00;99668.03;4465547;32;32845;-68
2022/04/26 11:41:00;;;;;;;2.60;1.80;;;;;;;22.26;34.09;99671.56;4483414;32;33797;-69
2022/04/26 11:43:31;;;;;;;2.55;1.80;;;;;;;22.19;34.98;99666.50;4480136;32;33738;-69
2022/04/26 11:45:58;;;;;;;3.35;2.03;;;;;;;22.34;34.04;99667.97;4484180;32;33577;-71
2022/04/26 11:48:32;;;;;;;3.40;2.20;;;;;;;22.27;35.01;99662.94;4483743;32;33454;-69
2022/04/26 11:51:01;;;;;;;4.12;2.22;;;;;;;22.25;34.42;99669.94;4483690;32;34642;-69
2022/04/26 11:53:30;;;;;;;3.37;2.08;;;;;;;21.70;36.31;99663.94;4483385;32;34270;-68
2022/04/26 11:56:03;;;;;;;3.35;2.12;;;;;;;21.53;35.57;99658.44;4483075;32;33488;-64
2022/04/26 11:58:32;;;;;;;3.20;2.20;;;;;;;22.13;33.83;99660.31;4483661;32;33479;-64
2022/04/26 12:01:03;;;;;;;4.47;2.25;;;;;;;22.40;32.01;99655.59;4483106;32;33896;-65
2022/04/26 12:03:31;;;;;;;3.12;1.80;;;;;;;22.02;36.16;99656.28;4483817;32;35126;-65
2022/04/26 12:06:04;;;;;;;4.00;2.25;;;;;;;21.42;36.57;99659.91;4482428;32;33922;-68
2022/04/26 12:09:02;;;;;;;3.53;2.25;;;;;;;20.39;36.56;99656.44;4483206;32;34133;-67
2022/04/26 12:11:32;;;;;;;4.12;2.62;;;;;;;20.72;38.45;99656.97;4474037;32;32432;-68
2022/04/26 12:14:08;;;;;;;3.33;2.08;;;;;;;21.80;36.55;99657.31;4483590;32;34326;-73
2022/04/26 12:16:40;;;;;;;2.80;1.87;;;;;;;22.31;35.14;99655.63;4483141;32;34614;-72
2022/04/26 12:19:09;;;;;;;3.15;2.00;;;;;;;22.71;32.84;99655.28;4482020;32;33500;-72
2022/04/26 12:21:45;;;;;;;3.60;2.33;;;;;;;21.90;37.43;99648.69;4482120;32;33827;-72
2022/04/26 12:24:17;;;;;;;2.37;1.85;;;;;;;22.68;32.00;99649.63;4482592;32;34307;-67
2022/04/26 12:26:51;;;;;;;3.15;2.30;;;;;;;22.52;36.19;99650.16;4483260;32;34702;-65
2022/04/26 12:29:19;;;;;;;2.72;1.90;;;;;;;22.22;33.38;99640.16;4483808;32;33026;-71
2022/04/26 12:31:48;;;;;;;4.07;1.70;;;;;;;22.68;32.82;99641.34;4482089;32;33772;-70
2022/04/26 12:34:17;;;;;;;3.53;1.92;;;;;;;23.09;31.12;99631.53;4483395;32;34310;-70
2022/04/26 12:37:03;;;;;;;2.50;1.73;;;;;;;21.88;34.03;99626.09;4483238;32;33949;-70
2022/04/26 12:39:40;;;;;;;4.10;2.20;;;;;;;22.85;33.03;99627.41;4481405;32;34064;-70
2022/04/26 12:42:10;;;;;;;3.62;2.10;;;;;;;22.07;31.66;99625.75;4483140;32;33642;-69
2022/04/26 12:44:48;;;;;;;3.80;1.87;;;;;;;22.99;31.73;99621.63;4485344;32;34069;-71
2022/04/26 12:52:54;;;;;;;3.25;2.00;;;;;;;20.63;35.42;99612.00;4484574;32;33683;-71
2022/04/26 12:55:32;;;;;;;2.50;1.80;;;;;;;21.53;34.27;99605.19;4484736;32;34228;-71
2022/04/26 12:58:02;;;;;;;3.05;2.30;;;;;;;21.29;34.31;99611.97;4484860;32;33702;-68
2022/04/26 13:00:30;;;;;;;3.80;2.15;;;;;;;21.10;35.77;99613.09;4485515;32;33925;-69
2022/04/26 13:03:01;;;;;;;3.28;2.10;;;;;;;21.01;36.09;99617.75;4484982;32;33830;-71
2022/04/26 13:05:40;;;;;;;2.72;1.92;;;;;;;21.21;35.54;99618.28;4484935;32;33817;-69
2022/04/26 13:08:09;;;;;;;2.15;1.80;;;;;;;21.23;33.95;99605.81;4484246;32;34551;-71
2022/04/26 13:10:37;;;;;;;4.78;2.35;;;;;;;21.01;36.42;99619.72;4468913;32;33553;-67
2022/04/26 13:13:05;;;;;;;3.33;2.35;;;;;;;21.68;32.45;99616.56;4468028;32;34657;-68
2022/04/26 13:15:33;;;;;;;3.35;2.40;;;;;;;21.47;32.97;99612.81;4469466;32;33697;-64
2022/04/26 13:18:01;;;;;;;6.00;2.37;;;;;;;21.47;34.48;99613.63;4469270;32;34638;-73
2022/04/26 13:20:28;;;;;;;4.95;2.12;;;;;;;21.71;33.50;99610.38;4476476;32;34031;-65
2022/04/26 13:22:56;;;;;;;3.33;2.25;;;;;;;21.39;35.43;99608.88;4479774;32;33830;-67
2022/04/26 13:25:24;;;;;;;10.02;5.47;;;;;;;21.69;33.96;99614.59;4482229;32;34161;-68
2022/04/26 13:27:51;;;;;;;6.40;4.25;;;;;;;21.73;33.43;99610.03;4483990;32;34493;-72
2022/04/26 13:30:19;;;;;;;5.30;3.33;;;;;;;21.82;34.02;99610.03;4484664;32;33024;-69
2022/04/26 13:32:47;;;;;;;4.93;2.50;;;;;;;21.77;32.53;99613.78;4472986;32;34054;-73
2022/04/26 13:35:14;;;;;;;3.70;2.65;;;;;;;21.62;32.74;99603.22;4482607;32;34040;-68
2022/04/26 13:37:43;;;;;;;3.47;2.12;;;;;;;21.44;34.16;99596.91;4484515;32;33948;-68
2022/04/26 13:40:11;;;;;;;3.47;2.17;;;;;;;21.54;36.19;99604.87;4468654;32;34141;-63
2022/04/26 13:42:39;;;;;;;2.72;1.90;;;;;;;21.71;34.41;99607.59;4469074;32;33792;-74
2022/04/26 13:45:06;;;;;;;2.80;2.20;;;;;;;21.46;34.99;99598.19;4454728;32;33423;-66
2022/04/26 13:47:36;;;;;;;3.17;2.08;;;;;;;21.28;34.86;99596.56;4478863;32;33662;-70
2022/04/26 13:50:08;;;;;;;2.80;2.00;;;;;;;21.68;31.57;99599.16;4481424;32;32712;-67
2022/04/26 13:52:35;;;;;;;4.07;2.92;;;;;;;21.35;34.64;99590.53;4480604;32;34552;-73
2022/04/26 13:55:03;;;;;;;3.28;2.25;;;;;;;21.08;34.29;99595.25;4476182;32;33270;-68
2022/04/26 13:57:30;;;;;;;2.87;2.15;;;;;;;21.24;33.30;99592.81;4468688;32;34417;-65
2022/04/26 13:59:58;;;;;;;2.92;1.95;;;;;;;21.15;34.52;99589.25;4468575;32;34133;-69
2022/04/26 14:02:25;;;;;;;3.87;1.95;;;;;;;21.05;34.41;99598.63;4467690;32;33987;-70
2022/04/26 14:04:53;;;;;;;2.83;2.00;;;;;;;20.83;35.35;99594.06;4482088;32;34010;-66
2022/04/26 14:07:20;;;;;;;2.53;1.87;;;;;;;20.84;34.73;99595.66;4483906;32;33987;-70
2022/04/26 14:09:49;;;;;;;3.12;2.05;;;;;;;21.18;34.70;99599.63;4485190;32;34475;-68
2022/04/26 14:12:18;;;;;;;2.33;1.80;;;;;;;21.47;33.89;99599.03;4485237;32;34737;-71
2022/04/26 14:23:03;;;;;;;3.10;2.03;;;;;;;20.85;37.31;99597.31;4484579;32;33705;-65
2022/04/26 14:25:31;;;;;;;2.92;2.00;;;;;;;21.37;36.34;99602.88;4484916;32;35019;-71
2022/04/26 14:27:58;;;;;;;2.95;1.92;;;;;;;21.04;33.99;99592.31;4484658;32;33831;-68
2022/04/26 14:30:26;;;;;;;2.83;1.75;;;;;;;21.10;35.74;99595.72;4484897;32;33028;-70
2022/04/26 14:33:09;;;;;;;3.40;1.92;;;;;;;21.17;35.05;99592.50;4485059;32;34043;-69
2022/04/26 14:35:37;;;;;;;2.67;2.00;;;;;;;21.19;35.01;99587.47;4484982;32;33873;-68
2022/04/26 14:38:04;;;;;;;4.82;2.20;;;;;;;21.22;35.03;99589.56;4484219;32;33798;-67
2022/04/26 14:40:32;;;;;;;3.25;2.42;;;;;;;21.21;35.51;99590.69;4485129;32;33428;-69
2022/04/26 14:43:09;;;;;;;5.18;2.40;;;;;;;21.64;33.50;99581.63;4484803;32;34653;-65
2022/04/26 14:45:44;;;;;;;3.30;2.03;;;;;;;21.21;35.59;99590.69;4483549;32;33946;-70
2022/04/26 14:48:14;;;;;;;4.03;2.20;;;;;;;21.38;34.22;99587.13;4482427;32;34457;-70
2022/04/26 14:50:43;;;;;;;4.32;2.10;;;;;;;21.63;34.03;99586.34;4476342;32;34201;-65
2022/04/26 14:53:11;;;;;;;3.20;1.90;;;;;;;21.89;33.67;99589.03;4475508;32;33802;-70
2022/04/26 14:55:59;;;;;;;2.37;1.87;;;;;;;21.61;36.22;99590.56;4480190;32;34318;-67
2022/04/26 14:58:26;;;;;;;3.17;2.20;;;;;;;21.95;34.50;99588.87;4484920;32;33485;-68
2022/04/26 15:00:54;;;;;;;2.42;1.85;;;;;;;21.86;33.09;99586.16;4485112;32;33332;-67
2022/04/26 15:03:22;;;;;;;2.70;1.77;;;;;;;20.55;36.52;99576.94;4484445;32;34684;-72
2022/04/26 15:05:49;;;;;;;2.58;1.90;;;;;;;20.41;38.22;99577.03;4470711;32;34689;-68
2022/04/26 15:11:03;;;;;;;5.53;1.92;;;;;;;19.46;39.18;99572.59;4484745;32;33502;-69
2022/04/26 15:19:11;;;;;;;3.62;1.80;;;;;;;20.87;36.19;99572.97;4477979;32;34068;-70
2022/04/26 15:21:40;;;;;;;2.33;1.80;;;;;;;21.25;34.94;99567.66;4483410;32;33675;-69
2022/04/26 15:24:08;;;;;;;3.22;2.33;;;;;;;20.79;37.32;99565.50;4479796;32;33786;-67
2022/04/26 15:26:36;;;;;;;2.65;1.90;;;;;;;20.61;36.49;99570.97;4473777;32;34917;-68
2022/04/26 15:29:05;;;;;;;4.05;1.90;;;;;;;21.22;35.06;99565.53;4462611;32;33795;-65
2022/04/26 15:31:34;;;;;;;3.05;2.15;;;;;;;21.10;36.03;99565.38;4469005;32;34303;-67
2022/04/26 15:34:02;;;;;;;1.85;1.40;;;;;;;20.09;37.92;99551.47;4475306;32;33368;-66
2022/04/26 15:36:30;;;;;;;3.58;2.00;;;;;;;19.91;38.45;99555.25;4468404;32;34065;-69
2022/04/26 15:38:58;;;;;;;2.80;1.92;;;;;;;19.70;38.34;99549.47;4468400;32;33897;-69
2022/04/26 15:41:26;;;;;;;2.87;1.75;;;;;;;20.12;37.09;99547.28;4468248;32;34065;-67
2022/04/26 15:43:54;;;;;;;2.58;1.83;;;;;;;19.99;36.90;99552.53;4467094;32;33655;-66
2022/04/26 15:46:41;;;;;;;3.30;2.10;;;;;;;19.65;38.60;99551.22;4467755;32;33951;-70
2022/04/26 15:49:10;;;;;;;2.78;1.90;;;;;;;20.27;38.22;99550.41;4474678;32;34105;-70
2022/04/26 15:51:39;;;;;;;3.03;1.83;;;;;;;20.76;36.96;99555.94;4482416;32;33352;-66
2022/04/26 15:54:07;;;;;;;3.03;2.20;;;;;;;20.80;36.66;99554.16;4482847;32;34886;-66
2022/04/26 15:56:34;;;;;;;2.75;1.92;;;;;;;20.92;34.83;99556.28;4483830;32;34331;-69
2022/04/26 15:59:02;;;;;;;3.53;1.70;;;;;;;21.27;35.05;99559.03;4483720;32;33853;-69
2022/04/26 16:01:36;;;;;;;3.10;2.10;;;;;;;21.15;35.28;99556.16;4483525;32;34310;-66